createdAt,value
2023-04-05T00:01:26.635Z,5.88
2023-04-05T00:03:55.697Z,5.85
2023-04-05T00:06:26.524Z,5.81
2023-04-05T00:08:56.210Z,5.76
2023-04-05T00:11:24.931Z,5.73
2023-04-05T00:13:53.909Z,5.69
2023-04-05T00:16:22.394Z,5.65
2023-04-05T00:18:51.671Z,5.62
2023-04-05T00:21:21.942Z,5.60
2023-04-05T00:23:51.434Z,5.56
2023-04-05T00:26:22.591Z,5.53
2023-04-05T00:28:51.395Z,5.49
2023-04-05T00:31:20.368Z,5.46
2023-04-05T00:33:48.923Z,5.44
2023-04-05T00:36:19.573Z,5.40
2023-04-05T00:38:49.814Z,5.39
2023-04-05T00:41:18.433Z,5.36
2023-04-05T00:43:48.845Z,5.33
2023-04-05T00:46:18.232Z,5.32
2023-04-05T00:48:47.189Z,5.29
2023-04-05T00:51:15.587Z,5.26
2023-04-05T00:53:44.995Z,5.24
2023-04-05T00:56:13.937Z,5.22
2023-04-05T00:58:43.097Z,5.19
2023-04-05T01:01:22.429Z,5.17
2023-04-05T01:03:55.037Z,5.15
2023-04-05T01:06:46.007Z,5.11
2023-04-05T01:09:30.549Z,5.09
2023-04-05T01:12:04.055Z,5.07
2023-04-05T01:14:32.459Z,5.05
2023-04-05T01:17:03.394Z,5.04
2023-04-05T01:19:35.192Z,5.03
2023-04-05T01:22:42.007Z,4.98
2023-04-05T01:25:44.923Z,4.94
2023-04-05T01:28:45.867Z,4.89
2023-04-05T01:31:27.293Z,4.88
2023-04-05T01:34:03.974Z,4.86
2023-04-05T01:36:40.743Z,4.85
2023-04-05T01:39:12.601Z,4.82
2023-04-05T01:41:41.413Z,4.82
2023-04-05T01:44:09.869Z,4.80
2023-04-05T01:46:39.602Z,4.78
2023-04-05T01:49:07.953Z,4.78
2023-04-05T01:51:36.441Z,4.77
2023-04-05T01:54:04.981Z,4.76
2023-04-05T01:56:33.368Z,4.75
2023-04-05T01:59:01.827Z,4.73
2023-04-05T02:01:30.288Z,4.72
2023-04-05T02:04:00.250Z,4.73
2023-04-05T02:06:29.045Z,4.71
2023-04-05T02:08:57.394Z,4.69
2023-04-05T02:11:25.806Z,4.69
2023-04-05T02:13:54.120Z,4.67
2023-04-05T02:16:22.616Z,4.66
2023-04-05T02:18:51.146Z,4.66
2023-04-05T02:21:21.929Z,4.66
2023-04-05T02:23:50.226Z,4.65
2023-04-05T02:26:18.557Z,4.65
2023-04-05T02:28:47.254Z,4.64
2023-04-05T02:31:16.325Z,4.63
2023-04-05T02:33:44.721Z,4.62
2023-04-05T02:36:14.287Z,4.63
2023-04-05T02:38:44.025Z,4.62
2023-04-05T02:41:12.781Z,4.62
2023-04-05T02:43:41.215Z,4.62
2023-04-05T02:46:09.655Z,4.62
2023-04-05T02:48:38.015Z,4.63
2023-04-05T02:51:06.439Z,4.62
2023-04-05T02:53:34.798Z,4.60
2023-04-05T02:56:04.702Z,4.60
2023-04-05T02:58:33.004Z,4.59
2023-04-05T03:01:01.872Z,4.58
2023-04-05T03:03:30.781Z,4.58
2023-04-05T03:06:01.617Z,4.56
2023-04-05T03:08:30.233Z,4.55
2023-04-05T03:10:58.572Z,4.54
2023-04-05T03:13:28.247Z,4.54
2023-04-05T03:15:56.559Z,4.53
2023-04-05T03:18:25.876Z,4.53
2023-04-05T03:20:56.921Z,4.51
2023-04-05T03:23:27.378Z,4.51
2023-04-05T03:25:57.374Z,4.51
2023-04-05T03:28:27.565Z,4.50
2023-04-05T03:30:56.011Z,4.48
2023-04-05T03:33:24.431Z,4.48
2023-04-05T03:35:53.010Z,4.48
2023-04-05T03:38:21.493Z,4.47
2023-04-05T03:40:49.945Z,4.47
2023-04-05T03:43:18.387Z,4.47
2023-04-05T03:45:48.192Z,4.45
2023-04-05T03:48:20.078Z,4.44
2023-04-05T03:50:48.742Z,4.45
2023-04-05T03:53:19.108Z,4.44
2023-04-05T03:55:49.673Z,4.45
2023-04-05T03:58:18.321Z,4.44
2023-04-05T04:00:48.880Z,4.44
2023-04-05T04:03:17.226Z,4.46
2023-04-05T04:05:45.940Z,4.45
2023-04-05T04:08:14.453Z,4.46
2023-04-05T04:10:43.232Z,4.44
2023-04-05T04:13:11.600Z,4.45
2023-04-05T04:15:40.151Z,4.45
2023-04-05T04:18:10.325Z,4.44
2023-04-05T04:20:38.856Z,4.46
2023-04-05T04:23:10.124Z,4.45
2023-04-05T04:25:38.948Z,4.45
2023-04-05T04:28:08.107Z,4.46
2023-04-05T04:30:36.857Z,4.44
2023-04-05T04:33:09.202Z,4.45
2023-04-05T04:35:39.658Z,4.44
2023-04-05T04:38:09.085Z,4.45
2023-04-05T04:40:39.953Z,4.45
2023-04-05T04:43:10.392Z,4.45
2023-04-05T04:45:39.105Z,4.45
2023-04-05T04:48:08.331Z,4.45
2023-04-05T04:50:39.219Z,4.46
2023-04-05T04:53:09.984Z,4.48
2023-04-05T04:55:38.663Z,4.49
2023-04-05T04:58:10.214Z,4.50
2023-04-05T05:00:40.928Z,4.52
2023-04-05T05:03:11.385Z,4.54
2023-04-05T05:05:45.956Z,4.56
2023-04-05T05:08:15.087Z,4.59
2023-04-05T05:10:43.622Z,4.64
2023-04-05T05:13:12.264Z,4.68
2023-04-05T05:15:42.378Z,4.71
2023-04-05T05:18:12.430Z,4.75
2023-04-05T05:20:41.560Z,4.79
2023-04-05T05:23:11.520Z,4.86
2023-04-05T05:25:40.019Z,4.91
2023-04-05T05:28:08.339Z,4.97
2023-04-05T05:30:36.748Z,5.02
2023-04-05T05:33:05.721Z,5.10
2023-04-05T05:35:34.779Z,5.17
2023-04-05T05:38:03.223Z,5.24
2023-04-05T05:40:32.970Z,5.30
2023-04-05T05:43:01.346Z,5.39
2023-04-05T05:45:29.863Z,5.45
2023-04-05T05:47:58.294Z,5.54
2023-04-05T05:50:26.716Z,5.61
2023-04-05T05:52:55.572Z,5.69
2023-04-05T05:55:23.922Z,5.77
2023-04-05T05:57:53.998Z,5.91
2023-04-05T06:00:22.964Z,6.11
2023-04-05T06:02:52.824Z,6.48
2023-04-05T06:05:21.409Z,6.74
2023-04-05T06:07:49.726Z,6.92
2023-04-05T06:10:18.314Z,6.96
2023-04-05T06:12:46.901Z,6.98
2023-04-05T06:15:16.845Z,7.00
2023-04-05T06:17:45.513Z,7.08
2023-04-05T06:20:14.394Z,7.15
2023-04-05T06:22:42.801Z,7.14
2023-04-05T06:25:13.050Z,7.15
2023-04-05T06:27:41.597Z,7.20
2023-04-05T06:30:11.593Z,7.23
2023-04-05T06:32:41.289Z,7.29
2023-04-05T06:35:10.515Z,7.34
2023-04-05T06:37:38.928Z,7.42
2023-04-05T06:40:09.648Z,7.53
2023-04-05T06:42:37.999Z,7.67
2023-04-05T06:45:07.792Z,7.81
2023-04-05T06:47:36.545Z,7.91
2023-04-05T06:50:08.904Z,8.01
2023-04-05T06:52:37.419Z,8.12
2023-04-05T06:55:06.791Z,8.22
2023-04-05T06:57:35.543Z,8.32
2023-04-05T07:00:09.007Z,8.40
2023-04-05T07:02:37.376Z,8.46
2023-04-05T07:05:09.226Z,8.54
2023-04-05T07:07:42.475Z,8.62
2023-04-05T07:10:11.774Z,8.68
2023-04-05T07:12:41.316Z,8.76
2023-04-05T07:15:11.419Z,8.85
2023-04-05T07:17:39.876Z,8.96
2023-04-05T07:20:11.485Z,9.05
2023-04-05T07:22:39.841Z,9.13
2023-04-05T07:25:09.861Z,9.22
2023-04-05T07:27:39.779Z,9.26
2023-04-05T07:30:10.135Z,9.38
2023-04-05T07:32:38.752Z,9.47
2023-04-05T07:35:09.720Z,9.58
2023-04-05T07:37:38.742Z,9.70
2023-04-05T07:40:11.177Z,9.73
2023-04-05T07:42:40.161Z,9.78
2023-04-05T07:45:10.019Z,9.78
2023-04-05T07:47:38.435Z,9.79
2023-04-05T07:50:12.177Z,9.78
2023-04-05T07:52:40.571Z,9.74
2023-04-05T07:55:10.497Z,9.69
2023-04-05T07:57:38.961Z,9.70
2023-04-05T08:00:13.112Z,9.75
2023-04-05T08:02:41.956Z,9.79
2023-04-05T08:05:12.081Z,9.82
2023-04-05T08:07:40.424Z,9.85
2023-04-05T08:10:09.542Z,9.90
2023-04-05T08:12:39.032Z,9.96
2023-04-05T08:15:09.356Z,10.02
2023-04-05T08:17:37.708Z,10.03
2023-04-05T08:20:08.297Z,10.03
2023-04-05T08:22:38.070Z,10.11
2023-04-05T08:25:08.055Z,10.21
2023-04-05T08:27:36.447Z,10.32
2023-04-05T08:30:06.183Z,10.43
2023-04-05T08:32:35.342Z,10.50
2023-04-05T08:35:03.932Z,10.57
2023-04-05T08:37:37.041Z,10.69
2023-04-05T08:40:06.419Z,10.75
2023-04-05T08:42:38.495Z,10.82
2023-04-05T08:45:12.034Z,10.85
2023-04-05T08:47:40.694Z,10.90
2023-04-05T08:50:14.400Z,10.94
2023-04-05T08:52:49.881Z,10.95
2023-04-05T08:55:18.617Z,10.99
2023-04-05T08:57:54.987Z,11.02
2023-04-05T09:00:23.677Z,11.06
2023-04-05T09:02:58.114Z,11.14
2023-04-05T09:05:28.009Z,11.18
2023-04-05T09:07:59.430Z,11.24
2023-04-05T09:10:30.722Z,11.33
2023-04-05T09:12:59.937Z,11.41
2023-04-05T09:15:28.650Z,11.44
2023-04-05T09:17:57.929Z,11.44
2023-04-05T09:20:26.473Z,11.42
2023-04-05T09:22:57.187Z,11.44
2023-04-05T09:25:42.572Z,11.43
2023-04-05T09:28:12.264Z,11.53
2023-04-05T09:30:46.648Z,11.70
2023-04-05T09:33:21.113Z,11.93
2023-04-05T09:35:52.293Z,12.21
2023-04-05T09:38:23.248Z,12.39
2023-04-05T09:40:53.119Z,12.55
2023-04-05T09:43:40.399Z,12.62
2023-04-05T09:46:08.909Z,12.63
2023-04-05T09:48:51.420Z,12.58
2023-04-05T09:51:20.672Z,12.58
2023-04-05T09:54:02.920Z,12.70
2023-04-05T09:56:38.609Z,12.87
2023-04-05T09:59:11.052Z,13.06
2023-04-05T10:01:41.664Z,13.24
2023-04-05T10:04:10.622Z,13.34
2023-04-05T10:06:41.161Z,13.31
2023-04-05T10:09:11.459Z,13.26
2023-04-05T10:11:43.376Z,13.20
2023-04-05T10:14:11.798Z,13.20
2023-04-05T10:16:52.485Z,13.22
2023-04-05T10:19:30.718Z,13.34
2023-04-05T10:22:03.706Z,13.46
2023-04-05T10:24:46.329Z,13.51
2023-04-05T10:27:24.691Z,13.51
2023-04-05T10:30:06.205Z,13.44
2023-04-05T10:32:54.196Z,13.44
2023-04-05T10:35:30.459Z,13.48
2023-04-05T10:38:14.360Z,13.58
2023-04-05T10:40:48.213Z,13.71
2023-04-05T10:43:24.792Z,13.97
2023-04-05T10:45:56.225Z,14.21
2023-04-05T10:48:41.884Z,14.33
2023-04-05T10:51:11.128Z,14.40
2023-04-05T10:53:40.213Z,14.39
2023-04-05T10:56:09.399Z,14.30
2023-04-05T10:58:42.368Z,14.17
2023-04-05T11:01:11.580Z,14.03
2023-04-05T11:03:48.750Z,13.91
2023-04-05T11:06:23.372Z,13.99
2023-04-05T11:08:55.546Z,14.22
2023-04-05T11:11:26.574Z,14.57
2023-04-05T11:13:58.026Z,14.86
2023-04-05T11:16:41.249Z,15.10
2023-04-05T11:19:10.683Z,15.22
2023-04-05T11:21:39.105Z,15.25
2023-04-05T11:24:11.981Z,15.23
2023-04-05T11:26:58.409Z,15.18
2023-04-05T11:29:56.064Z,15.11
2023-04-05T11:32:25.297Z,15.12
2023-04-05T11:35:01.893Z,15.11
2023-04-05T11:38:07.084Z,15.14
2023-04-05T11:40:38.036Z,15.36
2023-04-05T11:43:10.054Z,15.95
2023-04-05T11:45:41.744Z,16.57
2023-04-05T11:48:12.577Z,17.08
2023-04-05T11:50:42.818Z,17.35
2023-04-05T11:53:13.133Z,17.39
2023-04-05T11:55:43.557Z,17.24
2023-04-05T11:58:16.909Z,17.08
2023-04-05T12:00:48.572Z,16.94
2023-04-05T12:03:18.086Z,16.82
2023-04-05T12:05:48.822Z,16.76
2023-04-05T12:08:17.495Z,16.69
2023-04-05T12:10:46.745Z,16.71
2023-04-05T12:13:15.155Z,16.76
2023-04-05T12:15:43.861Z,16.72
2023-04-05T12:18:16.956Z,16.90
2023-04-05T12:20:45.772Z,17.44
2023-04-05T12:23:14.321Z,18.11
2023-04-05T12:25:43.076Z,18.58
2023-04-05T12:28:12.024Z,19.12
2023-04-05T12:30:50.763Z,19.62
2023-04-05T12:33:30.175Z,20.42
2023-04-05T12:35:59.164Z,21.27
2023-04-05T12:38:28.588Z,22.03
2023-04-05T12:41:01.983Z,22.28
2023-04-05T12:43:40.498Z,22.23
2023-04-05T12:46:11.980Z,21.83
2023-04-05T12:48:43.756Z,21.31
2023-04-05T12:51:17.743Z,20.94
2023-04-05T12:53:49.421Z,21.15
2023-04-05T12:56:17.952Z,21.12
2023-04-05T12:58:51.545Z,20.84
2023-04-05T13:01:20.415Z,20.97
2023-04-05T13:03:54.875Z,20.97
2023-04-05T13:06:27.436Z,20.75
2023-04-05T13:08:55.873Z,20.27
2023-04-05T13:11:24.811Z,19.70
2023-04-05T13:13:53.261Z,19.31
2023-04-05T13:16:21.949Z,19.81
2023-04-05T13:18:51.796Z,20.69
2023-04-05T13:21:20.552Z,21.49
2023-04-05T13:23:48.898Z,22.11
2023-04-05T13:26:17.308Z,22.18
2023-04-05T13:28:45.745Z,21.85
2023-04-05T13:31:15.867Z,21.32
2023-04-05T13:33:45.100Z,20.72
2023-04-05T13:36:14.906Z,20.17
2023-04-05T13:38:43.400Z,19.68
2023-04-05T13:41:11.815Z,19.25
2023-04-05T13:43:40.547Z,18.86
2023-04-05T13:46:09.001Z,18.48
2023-04-05T13:48:37.332Z,18.44
2023-04-05T13:51:05.870Z,18.98
2023-04-05T13:53:35.634Z,19.34
2023-04-05T13:56:04.046Z,19.49
2023-04-05T13:58:32.404Z,19.48
2023-04-05T14:01:00.839Z,19.36
2023-04-05T14:03:29.361Z,19.05
2023-04-05T14:05:57.796Z,18.84
2023-04-05T14:08:26.201Z,19.07
2023-04-05T14:10:56.024Z,19.66
2023-04-05T14:13:24.686Z,19.94
2023-04-05T14:15:53.658Z,19.82
2023-04-05T14:18:22.011Z,19.47
2023-04-05T14:20:50.361Z,19.00
2023-04-05T14:23:18.991Z,18.56
2023-04-05T14:25:47.312Z,18.13
2023-04-05T14:28:17.056Z,17.68
2023-04-05T14:30:45.456Z,17.35
2023-04-05T14:33:14.857Z,17.14
2023-04-05T14:35:43.392Z,16.97
2023-04-05T14:38:14.376Z,16.83
2023-04-05T14:40:44.165Z,16.70
2023-04-05T14:43:12.689Z,16.58
2023-04-05T14:45:42.470Z,16.49
2023-04-05T14:48:11.215Z,16.38
2023-04-05T14:50:40.085Z,16.33
2023-04-05T14:53:08.907Z,16.33
2023-04-05T14:55:38.898Z,16.24
2023-04-05T14:58:08.600Z,16.13
2023-04-05T15:00:37.045Z,16.06
2023-04-05T15:03:06.935Z,15.96
2023-04-05T15:05:35.456Z,15.83
2023-04-05T15:08:03.841Z,15.66
2023-04-05T15:10:32.276Z,15.48
2023-04-05T15:13:00.901Z,15.33
2023-04-05T15:15:29.317Z,15.24
2023-04-05T15:17:57.807Z,15.32
2023-04-05T15:20:28.121Z,15.21
2023-04-05T15:22:56.593Z,15.23
2023-04-05T15:25:25.027Z,15.25
2023-04-05T15:27:54.927Z,15.25
2023-04-05T15:30:23.614Z,15.24
2023-04-05T15:32:54.999Z,15.21
2023-04-05T15:35:23.650Z,15.20
2023-04-05T15:37:53.435Z,15.17
2023-04-05T15:40:21.813Z,15.17
2023-04-05T15:42:50.242Z,15.16
2023-04-05T15:45:18.882Z,15.14
2023-04-05T15:47:47.273Z,15.06
2023-04-05T15:50:15.704Z,14.97
2023-04-05T15:52:44.117Z,14.86
2023-04-05T15:55:13.997Z,14.71
2023-04-05T15:57:42.362Z,14.58
2023-04-05T16:00:12.720Z,14.45
2023-04-05T16:02:41.382Z,14.31
2023-04-05T16:05:10.099Z,14.19
2023-04-05T16:07:38.562Z,14.09
2023-04-05T16:10:08.710Z,14.01
2023-04-05T16:12:38.606Z,13.97
2023-04-05T16:15:08.623Z,13.89
2023-04-05T16:17:37.103Z,13.80
2023-04-05T16:20:07.204Z,13.70
2023-04-05T16:22:35.708Z,13.60
2023-04-05T16:25:04.162Z,13.50
2023-04-05T16:27:33.708Z,13.44
2023-04-05T16:30:03.581Z,13.38
2023-04-05T16:32:32.183Z,13.32
2023-04-05T16:35:00.651Z,13.24
2023-04-05T16:37:29.030Z,13.19
2023-04-05T16:39:57.403Z,13.14
2023-04-05T16:42:25.991Z,13.08
2023-04-05T16:44:54.347Z,13.03
2023-04-05T16:47:24.360Z,13.01
2023-04-05T16:49:52.734Z,12.97
2023-04-05T16:52:21.270Z,12.94
2023-04-05T16:54:50.603Z,12.87
2023-04-05T16:57:19.128Z,12.82
2023-04-05T16:59:47.619Z,12.77
2023-04-05T17:02:18.095Z,12.72
2023-04-05T17:04:47.901Z,12.66
2023-04-05T17:07:16.315Z,12.62
2023-04-05T17:09:44.729Z,12.56
2023-04-05T17:12:13.074Z,12.52
2023-04-05T17:14:41.460Z,12.48
2023-04-05T17:17:09.955Z,12.46
2023-04-05T17:19:38.317Z,12.40
2023-04-05T17:22:08.251Z,12.37
2023-04-05T17:24:36.918Z,12.34
2023-04-05T17:27:05.913Z,12.32
2023-04-05T17:29:34.277Z,12.27
2023-04-05T17:32:02.676Z,12.25
2023-04-05T17:34:31.335Z,12.24
2023-04-05T17:36:59.947Z,12.22
2023-04-05T17:39:29.861Z,12.19
2023-04-05T17:41:58.276Z,12.17
2023-04-05T17:44:27.167Z,12.15
2023-04-05T17:47:05.907Z,12.14
2023-04-05T17:49:38.086Z,12.12
2023-04-05T17:52:08.521Z,12.09
2023-04-05T17:54:39.468Z,12.08
2023-04-05T17:57:15.027Z,12.07
2023-04-05T17:59:44.162Z,12.04
2023-04-05T18:02:12.984Z,12.04
2023-04-05T18:04:42.152Z,12.03
2023-04-05T18:07:10.571Z,12.03
2023-04-05T18:09:42.444Z,12.04
2023-04-05T18:12:11.280Z,12.03
2023-04-05T18:14:40.149Z,12.03
2023-04-05T18:17:09.032Z,12.03
2023-04-05T18:19:38.052Z,12.01
2023-04-05T18:22:07.209Z,12.04
2023-04-05T18:24:35.750Z,12.02
2023-04-05T18:27:05.643Z,12.01
2023-04-05T18:29:38.000Z,12.01
2023-04-05T18:32:07.625Z,12.01
2023-04-05T18:34:36.814Z,12.01
2023-04-05T18:37:05.295Z,12.02
2023-04-05T18:39:34.001Z,12.01
2023-04-05T18:42:02.866Z,12.01
2023-04-05T18:44:33.012Z,11.98
2023-04-05T18:47:01.637Z,11.96
2023-04-05T18:49:30.074Z,11.94
2023-04-05T18:51:58.629Z,11.91
2023-04-05T18:54:27.291Z,11.86
2023-04-05T18:56:56.569Z,11.78
2023-04-05T18:59:25.146Z,11.69
2023-04-05T19:01:56.799Z,11.57
2023-04-05T19:04:25.266Z,11.47
2023-04-05T19:06:53.756Z,11.37
2023-04-05T19:09:22.747Z,11.28
2023-04-05T19:11:51.733Z,11.19
2023-04-05T19:14:21.250Z,11.14
2023-04-05T19:16:50.586Z,11.10
2023-04-05T19:19:21.082Z,11.06
2023-04-05T19:21:49.741Z,11.04
2023-04-05T19:24:18.560Z,11.04
2023-04-05T19:26:47.311Z,11.04
2023-04-05T19:29:16.514Z,11.03
2023-04-05T19:31:45.472Z,11.05
2023-04-05T19:34:14.285Z,11.07
2023-04-05T19:36:44.630Z,11.09
2023-04-05T19:39:15.005Z,11.11
2023-04-05T19:42:34.306Z,11.11
2023-04-05T19:45:03.053Z,11.12
2023-04-05T19:47:31.659Z,11.14
2023-04-05T19:50:01.175Z,11.15
2023-04-05T19:52:41.436Z,11.17
2023-04-05T19:55:29.811Z,11.16
2023-04-05T19:58:00.425Z,11.18
2023-04-05T20:00:37.985Z,11.16
2023-04-05T20:03:27.312Z,11.17
2023-04-05T20:06:11.220Z,11.15
2023-04-05T20:08:43.114Z,11.15
2023-04-05T20:11:15.758Z,11.11
2023-04-05T20:13:46.500Z,11.07
2023-04-05T20:16:16.544Z,11.02
2023-04-05T20:18:49.157Z,10.98
2023-04-05T20:21:18.043Z,10.92
2023-04-05T20:23:47.964Z,10.89
2023-04-05T20:26:17.904Z,10.85
2023-04-05T20:28:54.282Z,10.82
2023-04-05T20:31:26.450Z,10.80
2023-04-05T20:33:56.271Z,10.77
2023-04-05T20:36:32.063Z,10.74
2023-04-05T20:39:02.760Z,10.71
2023-04-05T20:41:31.514Z,10.68
2023-04-05T20:44:00.484Z,10.62
2023-04-05T20:46:29.081Z,10.57
2023-04-05T20:48:58.319Z,10.53
2023-04-05T20:51:27.026Z,10.46
2023-04-05T20:53:55.458Z,10.41
2023-04-05T20:56:25.275Z,10.33
2023-04-05T20:58:54.506Z,10.26
2023-04-05T21:01:23.303Z,10.20
2023-04-05T21:03:53.130Z,10.14
2023-04-05T21:06:21.676Z,10.08
2023-04-05T21:08:50.068Z,10.02
2023-04-05T21:11:18.400Z,9.96
2023-04-05T21:13:48.360Z,9.91
2023-04-05T21:16:16.928Z,9.85
2023-04-05T21:18:45.497Z,9.80
2023-04-05T21:21:13.878Z,9.76
2023-04-05T21:23:42.229Z,9.70
2023-04-05T21:26:10.615Z,9.66
2023-04-05T21:28:38.926Z,9.61
2023-04-05T21:31:08.752Z,9.56
2023-04-05T21:33:37.207Z,9.53
2023-04-05T21:36:06.482Z,9.48
2023-04-05T21:38:34.871Z,9.45
2023-04-05T21:41:03.165Z,9.40
2023-04-05T21:43:31.531Z,9.36
2023-04-05T21:45:59.886Z,9.31
2023-04-05T21:48:29.647Z,9.28
2023-04-05T21:50:57.998Z,9.24
2023-04-05T21:53:26.364Z,9.20
2023-04-05T21:55:54.725Z,9.16
2023-04-05T21:58:23.102Z,9.12
2023-04-05T22:00:51.454Z,9.07
2023-04-05T22:03:19.900Z,9.03
2023-04-05T22:05:49.681Z,8.98
2023-04-05T22:08:18.062Z,8.93
2023-04-05T22:10:46.531Z,8.90
2023-04-05T22:13:14.942Z,8.86
2023-04-05T22:15:44.201Z,8.83
2023-04-05T22:18:12.796Z,8.80
2023-04-05T22:20:41.238Z,8.76
2023-04-05T22:23:11.086Z,8.74
2023-04-05T22:25:39.412Z,8.71
2023-04-05T22:28:07.784Z,8.68
2023-04-05T22:30:43.833Z,8.65
2023-04-05T22:33:13.777Z,8.62
2023-04-05T22:35:43.017Z,8.60
2023-04-05T22:38:12.859Z,8.57
2023-04-05T22:40:41.376Z,8.55
2023-04-05T22:43:09.785Z,8.51
2023-04-05T22:45:38.207Z,8.49
2023-04-05T22:48:07.183Z,8.48
2023-04-05T22:50:35.709Z,8.46
2023-04-05T22:53:04.075Z,8.44
2023-04-05T22:55:33.721Z,8.42
2023-04-05T22:58:02.031Z,8.42
2023-04-05T23:00:30.413Z,8.39
2023-04-05T23:02:58.847Z,8.37
2023-04-05T23:05:27.747Z,8.33
2023-04-05T23:07:56.340Z,8.31
2023-04-05T23:10:25.577Z,8.28
2023-04-05T23:12:55.356Z,8.26
2023-04-05T23:15:23.953Z,8.23
2023-04-05T23:17:52.516Z,8.22
2023-04-05T23:20:20.865Z,8.19
2023-04-05T23:22:49.164Z,8.17
2023-04-05T23:25:17.629Z,8.15
2023-04-05T23:27:46.103Z,8.14
2023-04-05T23:30:16.473Z,8.12
2023-04-05T23:32:44.849Z,8.12
2023-04-05T23:35:13.385Z,8.11
2023-04-05T23:37:41.746Z,8.10
2023-04-05T23:40:12.073Z,8.11
2023-04-05T23:42:40.544Z,8.09
2023-04-05T23:45:11.376Z,8.07
2023-04-05T23:47:41.389Z,8.07
2023-04-05T23:50:11.498Z,8.05
2023-04-05T23:52:39.882Z,8.03
2023-04-05T23:55:09.665Z,8.02
2023-04-05T23:57:38.107Z,7.99
